sensor_id;sensor_type;location;lat;lon;timestamp;P1;durP1;ratioP1;P2;durP2;ratioP2
66972;SDS011;53902;51.466;-2.586;2023-05-02T00:01:07;6.00;;;2.95;;
66972;SDS011;53902;51.466;-2.586;2023-05-02T00:03:33;7.43;;;3.13;;
66972;SDS011;53902;51.466;-2.586;2023-05-02T00:05:58;5.40;;;3.15;;
66972;SDS011;53902;51.466;-2.586;2023-05-02T00:08:24;5.17;;;3.30;;
66972;SDS011;53902;51.466;-2.586;2023-05-02T00:10:50;6.13;;;2.80;;
66972;SDS011;53902;51.466;-2.586;2023-05-02T00:13:15;3.22;;;2.55;;
66972;SDS011;53902;51.466;-2.586;2023-05-02T00:15:40;3.72;;;2.58;;
66972;SDS011;53902;51.466;-2.586;2023-05-02T00:18:06;5.18;;;2.75;;
66972;SDS011;53902;51.466;-2.586;2023-05-02T00:20:31;3.95;;;2.60;;
66972;SDS011;53902;51.466;-2.586;2023-05-02T00:22:57;4.05;;;2.60;;
66972;SDS011;53902;51.466;-2.586;2023-05-02T00:25:22;3.17;;;2.40;;
66972;SDS011;53902;51.466;-2.586;2023-05-02T00:27:47;3.90;;;2.70;;
66972;SDS011;53902;51.466;-2.586;2023-05-02T00:32:40;3.30;;;2.33;;
66972;SDS011;53902;51.466;-2.586;2023-05-02T00:35:05;7.05;;;2.60;;
66972;SDS011;53902;51.466;-2.586;2023-05-02T00:37:31;5.43;;;2.80;;
66972;SDS011;53902;51.466;-2.586;2023-05-02T00:39:57;3.30;;;2.58;;
66972;SDS011;53902;51.466;-2.586;2023-05-02T00:42:22;3.13;;;2.80;;
66972;SDS011;53902;51.466;-2.586;2023-05-02T00:44:49;3.35;;;2.90;;
66972;SDS011;53902;51.466;-2.586;2023-05-02T00:47:14;4.88;;;2.60;;
66972;SDS011;53902;51.466;-2.586;2023-05-02T00:49:40;4.68;;;2.42;;
66972;SDS011;53902;51.466;-2.586;2023-05-02T00:52:05;5.22;;;2.67;;
66972;SDS011;53902;51.466;-2.586;2023-05-02T00:54:31;4.67;;;3.20;;
66972;SDS011;53902;51.466;-2.586;2023-05-02T00:56:57;5.18;;;2.63;;
66972;SDS011;53902;51.466;-2.586;2023-05-02T00:59:22;3.25;;;2.50;;
66972;SDS011;53902;51.466;-2.586;2023-05-02T01:01:52;3.00;;;2.55;;
66972;SDS011;53902;51.466;-2.586;2023-05-02T01:15:04;3.72;;;2.70;;
66972;SDS011;53902;51.466;-2.586;2023-05-02T01:17:31;4.70;;;2.45;;
66972;SDS011;53902;51.466;-2.586;2023-05-02T01:20:01;3.03;;;2.33;;
66972;SDS011;53902;51.466;-2.586;2023-05-02T01:22:29;4.68;;;3.10;;
66972;SDS011;53902;51.466;-2.586;2023-05-02T01:30:27;5.70;;;3.40;;
66972;SDS011;53902;51.466;-2.586;2023-05-02T01:32:54;7.25;;;3.25;;
66972;SDS011;53902;51.466;-2.586;2023-05-02T01:35:21;4.13;;;2.85;;
66972;SDS011;53902;51.466;-2.586;2023-05-02T01:37:47;4.82;;;2.65;;
66972;SDS011;53902;51.466;-2.586;2023-05-02T01:40:17;3.40;;;2.65;;
66972;SDS011;53902;51.466;-2.586;2023-05-02T01:42:45;3.50;;;2.95;;
66972;SDS011;53902;51.466;-2.586;2023-05-02T01:45:12;3.65;;;2.92;;
66972;SDS011;53902;51.466;-2.586;2023-05-02T01:47:38;4.68;;;2.97;;
66972;SDS011;53902;51.466;-2.586;2023-05-02T01:50:05;6.32;;;3.47;;
66972;SDS011;53902;51.466;-2.586;2023-05-02T01:52:33;3.45;;;2.83;;
66972;SDS011;53902;51.466;-2.586;2023-05-02T01:54:59;3.63;;;3.00;;
66972;SDS011;53902;51.466;-2.586;2023-05-02T01:57:25;6.03;;;3.38;;
66972;SDS011;53902;51.466;-2.586;2023-05-02T01:59:51;4.20;;;3.40;;
66972;SDS011;53902;51.466;-2.586;2023-05-02T02:02:19;4.35;;;3.33;;
66972;SDS011;53902;51.466;-2.586;2023-05-02T02:04:45;4.78;;;3.88;;
66972;SDS011;53902;51.466;-2.586;2023-05-02T02:07:11;7.18;;;3.50;;
66972;SDS011;53902;51.466;-2.586;2023-05-02T02:09:37;3.83;;;3.03;;
66972;SDS011;53902;51.466;-2.586;2023-05-02T02:14:42;4.75;;;3.40;;
66972;SDS011;53902;51.466;-2.586;2023-05-02T02:17:14;5.80;;;3.50;;
66972;SDS011;53902;51.466;-2.586;2023-05-02T02:19:42;5.25;;;3.50;;
66972;SDS011;53902;51.466;-2.586;2023-05-02T02:22:08;5.25;;;3.58;;
66972;SDS011;53902;51.466;-2.586;2023-05-02T02:24:34;6.65;;;3.72;;
66972;SDS011;53902;51.466;-2.586;2023-05-02T02:27:00;3.97;;;3.35;;
66972;SDS011;53902;51.466;-2.586;2023-05-02T02:29:26;4.65;;;3.88;;
66972;SDS011;53902;51.466;-2.586;2023-05-02T02:31:53;11.13;;;4.32;;
66972;SDS011;53902;51.466;-2.586;2023-05-02T02:34:18;6.38;;;3.58;;
66972;SDS011;53902;51.466;-2.586;2023-05-02T02:36:47;6.28;;;4.05;;
66972;SDS011;53902;51.466;-2.586;2023-05-02T02:45:10;4.25;;;3.60;;
66972;SDS011;53902;51.466;-2.586;2023-05-02T02:47:53;7.30;;;4.10;;
66972;SDS011;53902;51.466;-2.586;2023-05-02T02:50:30;5.80;;;4.30;;
66972;SDS011;53902;51.466;-2.586;2023-05-02T02:53:07;7.47;;;4.43;;
66972;SDS011;53902;51.466;-2.586;2023-05-02T02:58:06;6.30;;;4.18;;
66972;SDS011;53902;51.466;-2.586;2023-05-02T03:00:36;6.00;;;4.55;;
66972;SDS011;53902;51.466;-2.586;2023-05-02T03:03:02;4.40;;;3.97;;
66972;SDS011;53902;51.466;-2.586;2023-05-02T03:05:28;8.27;;;4.60;;
66972;SDS011;53902;51.466;-2.586;2023-05-02T03:07:55;5.85;;;4.22;;
66972;SDS011;53902;51.466;-2.586;2023-05-02T03:10:23;9.05;;;4.63;;
66972;SDS011;53902;51.466;-2.586;2023-05-02T03:12:48;9.10;;;4.68;;
66972;SDS011;53902;51.466;-2.586;2023-05-02T03:17:44;6.80;;;4.60;;
66972;SDS011;53902;51.466;-2.586;2023-05-02T03:20:09;5.28;;;4.32;;
66972;SDS011;53902;51.466;-2.586;2023-05-02T03:22:34;5.72;;;4.43;;
66972;SDS011;53902;51.466;-2.586;2023-05-02T03:25:00;7.70;;;4.80;;
66972;SDS011;53902;51.466;-2.586;2023-05-02T03:27:25;6.53;;;4.63;;
66972;SDS011;53902;51.466;-2.586;2023-05-02T03:29:51;8.00;;;5.05;;
66972;SDS011;53902;51.466;-2.586;2023-05-02T03:32:16;7.57;;;5.13;;
66972;SDS011;53902;51.466;-2.586;2023-05-02T03:34:41;6.97;;;5.00;;
66972;SDS011;53902;51.466;-2.586;2023-05-02T03:37:07;6.95;;;4.80;;
66972;SDS011;53902;51.466;-2.586;2023-05-02T03:39:32;5.40;;;4.18;;
66972;SDS011;53902;51.466;-2.586;2023-05-02T03:41:58;8.60;;;5.03;;
66972;SDS011;53902;51.466;-2.586;2023-05-02T03:44:23;7.00;;;5.40;;
66972;SDS011;53902;51.466;-2.586;2023-05-02T03:46:48;8.05;;;4.95;;
66972;SDS011;53902;51.466;-2.586;2023-05-02T03:49:14;8.80;;;5.15;;
66972;SDS011;53902;51.466;-2.586;2023-05-02T03:51:39;6.22;;;4.80;;
66972;SDS011;53902;51.466;-2.586;2023-05-02T03:54:05;8.18;;;4.95;;
66972;SDS011;53902;51.466;-2.586;2023-05-02T03:56:30;8.43;;;5.28;;
66972;SDS011;53902;51.466;-2.586;2023-05-02T03:58:55;7.05;;;5.22;;
66972;SDS011;53902;51.466;-2.586;2023-05-02T04:01:21;8.57;;;5.63;;
66972;SDS011;53902;51.466;-2.586;2023-05-02T04:03:47;7.38;;;5.10;;
66972;SDS011;53902;51.466;-2.586;2023-05-02T04:06:12;6.72;;;4.90;;
66972;SDS011;53902;51.466;-2.586;2023-05-02T04:08:38;7.88;;;4.88;;
66972;SDS011;53902;51.466;-2.586;2023-05-02T04:11:03;7.47;;;5.50;;
66972;SDS011;53902;51.466;-2.586;2023-05-02T04:13:29;7.85;;;5.32;;
66972;SDS011;53902;51.466;-2.586;2023-05-02T04:15:55;7.50;;;5.53;;
66972;SDS011;53902;51.466;-2.586;2023-05-02T04:18:20;7.20;;;5.40;;
66972;SDS011;53902;51.466;-2.586;2023-05-02T04:20:45;8.00;;;5.55;;
66972;SDS011;53902;51.466;-2.586;2023-05-02T04:23:11;9.75;;;5.38;;
66972;SDS011;53902;51.466;-2.586;2023-05-02T04:25:36;8.15;;;5.68;;
66972;SDS011;53902;51.466;-2.586;2023-05-02T04:28:01;7.35;;;5.30;;
66972;SDS011;53902;51.466;-2.586;2023-05-02T04:30:27;9.05;;;5.90;;
66972;SDS011;53902;51.466;-2.586;2023-05-02T04:32:52;8.05;;;5.10;;
66972;SDS011;53902;51.466;-2.586;2023-05-02T04:35:18;8.75;;;4.95;;
66972;SDS011;53902;51.466;-2.586;2023-05-02T04:37:43;8.55;;;5.55;;
66972;SDS011;53902;51.466;-2.586;2023-05-02T04:40:09;8.82;;;5.60;;
66972;SDS011;53902;51.466;-2.586;2023-05-02T04:42:35;8.43;;;5.50;;
66972;SDS011;53902;51.466;-2.586;2023-05-02T04:45:00;8.10;;;5.82;;
66972;SDS011;53902;51.466;-2.586;2023-05-02T04:47:26;8.13;;;5.88;;
66972;SDS011;53902;51.466;-2.586;2023-05-02T04:49:51;7.72;;;6.00;;
66972;SDS011;53902;51.466;-2.586;2023-05-02T04:52:17;9.02;;;5.82;;
66972;SDS011;53902;51.466;-2.586;2023-05-02T04:54:42;9.50;;;5.90;;
66972;SDS011;53902;51.466;-2.586;2023-05-02T04:57:08;7.82;;;5.82;;
66972;SDS011;53902;51.466;-2.586;2023-05-02T04:59:34;7.63;;;6.25;;
66972;SDS011;53902;51.466;-2.586;2023-05-02T05:01:59;10.30;;;6.50;;
66972;SDS011;53902;51.466;-2.586;2023-05-02T05:04:25;10.23;;;6.85;;
66972;SDS011;53902;51.466;-2.586;2023-05-02T05:06:51;11.30;;;6.50;;
66972;SDS011;53902;51.466;-2.586;2023-05-02T05:09:16;7.68;;;5.60;;
66972;SDS011;53902;51.466;-2.586;2023-05-02T05:11:41;10.48;;;6.45;;
66972;SDS011;53902;51.466;-2.586;2023-05-02T05:14:07;11.85;;;7.30;;
66972;SDS011;53902;51.466;-2.586;2023-05-02T05:16:33;11.88;;;6.63;;
66972;SDS011;53902;51.466;-2.586;2023-05-02T05:18:59;9.45;;;6.13;;
66972;SDS011;53902;51.466;-2.586;2023-05-02T05:21:24;10.27;;;6.15;;
66972;SDS011;53902;51.466;-2.586;2023-05-02T05:23:51;11.20;;;6.68;;
66972;SDS011;53902;51.466;-2.586;2023-05-02T05:26:16;11.82;;;7.40;;
66972;SDS011;53902;51.466;-2.586;2023-05-02T05:28:42;9.82;;;6.95;;
66972;SDS011;53902;51.466;-2.586;2023-05-02T05:31:08;10.98;;;6.93;;
66972;SDS011;53902;51.466;-2.586;2023-05-02T05:33:35;9.10;;;7.22;;
66972;SDS011;53902;51.466;-2.586;2023-05-02T05:36:11;11.63;;;7.20;;
66972;SDS011;53902;51.466;-2.586;2023-05-02T05:38:39;12.98;;;7.45;;
66972;SDS011;53902;51.466;-2.586;2023-05-02T05:41:04;11.50;;;7.70;;
66972;SDS011;53902;51.466;-2.586;2023-05-02T05:43:31;11.88;;;7.30;;
66972;SDS011;53902;51.466;-2.586;2023-05-02T05:45:56;11.38;;;6.95;;
66972;SDS011;53902;51.466;-2.586;2023-05-02T05:48:22;10.15;;;7.20;;
66972;SDS011;53902;51.466;-2.586;2023-05-02T05:50:48;11.40;;;6.97;;
66972;SDS011;53902;51.466;-2.586;2023-05-02T05:56:35;9.55;;;7.20;;
66972;SDS011;53902;51.466;-2.586;2023-05-02T05:59:05;9.57;;;6.78;;
66972;SDS011;53902;51.466;-2.586;2023-05-02T06:01:30;7.88;;;5.93;;
66972;SDS011;53902;51.466;-2.586;2023-05-02T06:03:56;10.90;;;6.57;;
66972;SDS011;53902;51.466;-2.586;2023-05-02T06:06:22;9.88;;;6.80;;
66972;SDS011;53902;51.466;-2.586;2023-05-02T06:08:48;9.40;;;6.75;;
66972;SDS011;53902;51.466;-2.586;2023-05-02T06:11:13;10.85;;;7.00;;
66972;SDS011;53902;51.466;-2.586;2023-05-02T06:13:42;14.75;;;6.65;;
66972;SDS011;53902;51.466;-2.586;2023-05-02T06:16:07;10.50;;;6.80;;
66972;SDS011;53902;51.466;-2.586;2023-05-02T06:18:35;11.38;;;6.50;;
66972;SDS011;53902;51.466;-2.586;2023-05-02T06:21:04;8.35;;;6.30;;
66972;SDS011;53902;51.466;-2.586;2023-05-02T06:23:30;10.45;;;6.72;;
66972;SDS011;53902;51.466;-2.586;2023-05-02T06:26:01;9.30;;;6.57;;
66972;SDS011;53902;51.466;-2.586;2023-05-02T06:28:34;9.63;;;6.80;;
66972;SDS011;53902;51.466;-2.586;2023-05-02T06:31:03;9.75;;;7.35;;
66972;SDS011;53902;51.466;-2.586;2023-05-02T06:33:30;9.38;;;7.00;;
66972;SDS011;53902;51.466;-2.586;2023-05-02T06:35:56;8.52;;;6.43;;
66972;SDS011;53902;51.466;-2.586;2023-05-02T06:38:27;9.43;;;6.30;;
66972;SDS011;53902;51.466;-2.586;2023-05-02T06:40:52;10.05;;;6.93;;
66972;SDS011;53902;51.466;-2.586;2023-05-02T06:43:18;10.95;;;6.90;;
66972;SDS011;53902;51.466;-2.586;2023-05-02T06:45:43;10.88;;;6.88;;
66972;SDS011;53902;51.466;-2.586;2023-05-02T06:48:09;11.32;;;6.80;;
66972;SDS011;53902;51.466;-2.586;2023-05-02T06:50:39;9.13;;;6.43;;
66972;SDS011;53902;51.466;-2.586;2023-05-02T06:53:04;8.18;;;6.22;;
66972;SDS011;53902;51.466;-2.586;2023-05-02T06:55:30;11.13;;;6.28;;
66972;SDS011;53902;51.466;-2.586;2023-05-02T06:57:55;9.13;;;6.43;;
66972;SDS011;53902;51.466;-2.586;2023-05-02T07:00:21;10.05;;;6.47;;
66972;SDS011;53902;51.466;-2.586;2023-05-02T07:02:48;12.27;;;6.57;;
66972;SDS011;53902;51.466;-2.586;2023-05-02T07:05:14;12.10;;;7.05;;
66972;SDS011;53902;51.466;-2.586;2023-05-02T07:07:40;9.25;;;6.90;;
66972;SDS011;53902;51.466;-2.586;2023-05-02T07:10:09;8.95;;;6.53;;
66972;SDS011;53902;51.466;-2.586;2023-05-02T07:12:35;10.88;;;7.00;;
66972;SDS011;53902;51.466;-2.586;2023-05-02T07:15:01;10.85;;;6.72;;
66972;SDS011;53902;51.466;-2.586;2023-05-02T07:17:26;11.00;;;7.28;;
66972;SDS011;53902;51.466;-2.586;2023-05-02T07:19:52;9.20;;;6.70;;
66972;SDS011;53902;51.466;-2.586;2023-05-02T07:22:17;9.55;;;6.53;;
66972;SDS011;53902;51.466;-2.586;2023-05-02T07:24:43;14.50;;;6.32;;
66972;SDS011;53902;51.466;-2.586;2023-05-02T07:27:09;11.23;;;6.93;;
66972;SDS011;53902;51.466;-2.586;2023-05-02T07:29:35;8.57;;;5.63;;
66972;SDS011;53902;51.466;-2.586;2023-05-02T07:32:01;11.27;;;6.40;;
66972;SDS011;53902;51.466;-2.586;2023-05-02T07:34:26;8.43;;;6.28;;
66972;SDS011;53902;51.466;-2.586;2023-05-02T07:36:52;10.43;;;6.40;;
66972;SDS011;53902;51.466;-2.586;2023-05-02T07:39:17;12.95;;;6.13;;
66972;SDS011;53902;51.466;-2.586;2023-05-02T07:41:43;9.60;;;5.70;;
66972;SDS011;53902;51.466;-2.586;2023-05-02T07:44:09;6.78;;;5.35;;
66972;SDS011;53902;51.466;-2.586;2023-05-02T07:46:34;8.15;;;5.32;;
66972;SDS011;53902;51.466;-2.586;2023-05-02T07:49:00;8.27;;;5.05;;
66972;SDS011;53902;51.466;-2.586;2023-05-02T07:51:25;7.07;;;5.03;;
66972;SDS011;53902;51.466;-2.586;2023-05-02T07:53:51;10.85;;;5.15;;
66972;SDS011;53902;51.466;-2.586;2023-05-02T07:56:22;8.38;;;5.30;;
66972;SDS011;53902;51.466;-2.586;2023-05-02T07:58:48;7.77;;;5.47;;
66972;SDS011;53902;51.466;-2.586;2023-05-02T08:01:15;6.28;;;5.35;;
66972;SDS011;53902;51.466;-2.586;2023-05-02T08:03:41;8.93;;;5.43;;
66972;SDS011;53902;51.466;-2.586;2023-05-02T08:06:06;9.77;;;5.40;;
66972;SDS011;53902;51.466;-2.586;2023-05-02T08:08:33;6.85;;;5.38;;
66972;SDS011;53902;51.466;-2.586;2023-05-02T08:10:58;13.18;;;5.55;;
66972;SDS011;53902;51.466;-2.586;2023-05-02T08:13:24;9.60;;;5.50;;
66972;SDS011;53902;51.466;-2.586;2023-05-02T08:15:49;8.00;;;5.57;;
66972;SDS011;53902;51.466;-2.586;2023-05-02T08:18:14;7.65;;;5.10;;
66972;SDS011;53902;51.466;-2.586;2023-05-02T08:20:40;13.45;;;5.75;;
66972;SDS011;53902;51.466;-2.586;2023-05-02T08:23:05;9.75;;;5.72;;
66972;SDS011;53902;51.466;-2.586;2023-05-02T08:25:30;8.18;;;5.65;;
66972;SDS011;53902;51.466;-2.586;2023-05-02T08:27:56;8.68;;;5.60;;
66972;SDS011;53902;51.466;-2.586;2023-05-02T08:30:21;11.85;;;6.45;;
66972;SDS011;53902;51.466;-2.586;2023-05-02T08:32:47;10.80;;;6.85;;
66972;SDS011;53902;51.466;-2.586;2023-05-02T08:35:12;11.70;;;6.82;;
66972;SDS011;53902;51.466;-2.586;2023-05-02T08:37:38;13.00;;;7.60;;
66972;SDS011;53902;51.466;-2.586;2023-05-02T08:40:03;11.90;;;6.97;;
66972;SDS011;53902;51.466;-2.586;2023-05-02T08:42:29;9.77;;;7.43;;
66972;SDS011;53902;51.466;-2.586;2023-05-02T08:44:57;12.00;;;7.18;;
66972;SDS011;53902;51.466;-2.586;2023-05-02T08:47:22;13.55;;;7.82;;
66972;SDS011;53902;51.466;-2.586;2023-05-02T08:49:49;13.50;;;7.90;;
66972;SDS011;53902;51.466;-2.586;2023-05-02T08:52:15;14.13;;;8.02;;
66972;SDS011;53902;51.466;-2.586;2023-05-02T08:54:44;13.85;;;8.25;;
66972;SDS011;53902;51.466;-2.586;2023-05-02T08:57:10;14.63;;;8.48;;
66972;SDS011;53902;51.466;-2.586;2023-05-02T08:59:35;13.48;;;8.40;;
66972;SDS011;53902;51.466;-2.586;2023-05-02T09:02:04;14.35;;;9.30;;
66972;SDS011;53902;51.466;-2.586;2023-05-02T09:04:40;14.07;;;9.13;;
66972;SDS011;53902;51.466;-2.586;2023-05-02T09:07:07;14.90;;;8.90;;
66972;SDS011;53902;51.466;-2.586;2023-05-02T09:09:33;13.13;;;9.00;;
66972;SDS011;53902;51.466;-2.586;2023-05-02T09:11:58;15.75;;;8.80;;
66972;SDS011;53902;51.466;-2.586;2023-05-02T09:14:24;13.25;;;8.43;;
66972;SDS011;53902;51.466;-2.586;2023-05-02T09:16:49;14.85;;;8.82;;
66972;SDS011;53902;51.466;-2.586;2023-05-02T09:19:24;12.88;;;8.50;;
66972;SDS011;53902;51.466;-2.586;2023-05-02T09:21:50;14.07;;;8.82;;
66972;SDS011;53902;51.466;-2.586;2023-05-02T09:24:16;12.70;;;8.65;;
66972;SDS011;53902;51.466;-2.586;2023-05-02T09:26:43;16.88;;;8.27;;
66972;SDS011;53902;51.466;-2.586;2023-05-02T09:29:21;14.00;;;8.85;;
66972;SDS011;53902;51.466;-2.586;2023-05-02T09:31:46;17.48;;;9.25;;
66972;SDS011;53902;51.466;-2.586;2023-05-02T09:34:13;14.27;;;8.40;;
66972;SDS011;53902;51.466;-2.586;2023-05-02T09:36:44;12.48;;;8.60;;
66972;SDS011;53902;51.466;-2.586;2023-05-02T09:39:14;15.63;;;8.52;;
66972;SDS011;53902;51.466;-2.586;2023-05-02T09:41:44;14.15;;;8.80;;
66972;SDS011;53902;51.466;-2.586;2023-05-02T09:44:11;13.38;;;8.55;;
66972;SDS011;53902;51.466;-2.586;2023-05-02T09:46:43;13.77;;;8.50;;
66972;SDS011;53902;51.466;-2.586;2023-05-02T09:49:12;12.38;;;8.20;;
66972;SDS011;53902;51.466;-2.586;2023-05-02T09:51:39;15.75;;;8.43;;
66972;SDS011;53902;51.466;-2.586;2023-05-02T09:54:04;14.05;;;8.43;;
66972;SDS011;53902;51.466;-2.586;2023-05-02T09:56:30;12.60;;;7.78;;
66972;SDS011;53902;51.466;-2.586;2023-05-02T09:59:11;13.77;;;7.28;;
66972;SDS011;53902;51.466;-2.586;2023-05-02T10:01:40;10.70;;;7.00;;
66972;SDS011;53902;51.466;-2.586;2023-05-02T10:04:12;12.10;;;6.88;;
66972;SDS011;53902;51.466;-2.586;2023-05-02T10:06:42;9.43;;;6.95;;
66972;SDS011;53902;51.466;-2.586;2023-05-02T10:09:08;9.48;;;6.75;;
66972;SDS011;53902;51.466;-2.586;2023-05-02T10:14:01;10.07;;;6.90;;
66972;SDS011;53902;51.466;-2.586;2023-05-02T10:16:27;9.30;;;6.72;;
66972;SDS011;53902;51.466;-2.586;2023-05-02T10:19:02;10.10;;;6.38;;
66972;SDS011;53902;51.466;-2.586;2023-05-02T10:21:36;7.78;;;5.95;;
66972;SDS011;53902;51.466;-2.586;2023-05-02T10:24:02;10.43;;;6.32;;
66972;SDS011;53902;51.466;-2.586;2023-05-02T10:26:28;7.57;;;6.30;;
66972;SDS011;53902;51.466;-2.586;2023-05-02T10:28:54;9.32;;;6.00;;
66972;SDS011;53902;51.466;-2.586;2023-05-02T10:31:20;8.73;;;5.85;;
66972;SDS011;53902;51.466;-2.586;2023-05-02T10:33:47;9.52;;;5.93;;
66972;SDS011;53902;51.466;-2.586;2023-05-02T10:36:15;7.45;;;5.60;;
66972;SDS011;53902;51.466;-2.586;2023-05-02T10:38:44;10.68;;;6.03;;
66972;SDS011;53902;51.466;-2.586;2023-05-02T10:41:14;7.22;;;5.47;;
66972;SDS011;53902;51.466;-2.586;2023-05-02T10:43:44;8.70;;;5.70;;
66972;SDS011;53902;51.466;-2.586;2023-05-02T10:51:31;8.00;;;5.78;;
66972;SDS011;53902;51.466;-2.586;2023-05-02T11:02:00;8.38;;;5.85;;
66972;SDS011;53902;51.466;-2.586;2023-05-02T11:04:57;7.73;;;5.03;;
66972;SDS011;53902;51.466;-2.586;2023-05-02T11:07:23;7.20;;;5.05;;
66972;SDS011;53902;51.466;-2.586;2023-05-02T11:09:48;7.53;;;5.47;;
66972;SDS011;53902;51.466;-2.586;2023-05-02T11:12:41;9.43;;;5.70;;
66972;SDS011;53902;51.466;-2.586;2023-05-02T11:15:11;8.85;;;5.38;;
66972;SDS011;53902;51.466;-2.586;2023-05-02T11:20:37;7.68;;;5.25;;
66972;SDS011;53902;51.466;-2.586;2023-05-02T11:25:38;7.97;;;4.75;;
66972;SDS011;53902;51.466;-2.586;2023-05-02T11:28:06;7.60;;;4.95;;
66972;SDS011;53902;51.466;-2.586;2023-05-02T11:30:39;7.32;;;4.68;;
66972;SDS011;53902;51.466;-2.586;2023-05-02T11:33:12;6.80;;;4.63;;
66972;SDS011;53902;51.466;-2.586;2023-05-02T11:35:41;7.65;;;4.85;;
66972;SDS011;53902;51.466;-2.586;2023-05-02T11:38:11;7.97;;;5.00;;
66972;SDS011;53902;51.466;-2.586;2023-05-02T11:40:37;8.55;;;4.80;;
66972;SDS011;53902;51.466;-2.586;2023-05-02T11:43:14;9.03;;;4.60;;
66972;SDS011;53902;51.466;-2.586;2023-05-02T11:45:40;6.85;;;4.68;;
66972;SDS011;53902;51.466;-2.586;2023-05-02T11:48:07;7.28;;;4.97;;
66972;SDS011;53902;51.466;-2.586;2023-05-02T11:50:33;7.38;;;4.93;;
66972;SDS011;53902;51.466;-2.586;2023-05-02T11:53:07;6.55;;;5.05;;
66972;SDS011;53902;51.466;-2.586;2023-05-02T11:55:34;8.35;;;5.18;;
66972;SDS011;53902;51.466;-2.586;2023-05-02T11:58:00;8.80;;;5.13;;
66972;SDS011;53902;51.466;-2.586;2023-05-02T12:00:26;8.43;;;4.87;;
66972;SDS011;53902;51.466;-2.586;2023-05-02T12:02:52;6.57;;;4.45;;
66972;SDS011;53902;51.466;-2.586;2023-05-02T12:05:25;10.17;;;5.03;;
66972;SDS011;53902;51.466;-2.586;2023-05-02T12:07:53;5.97;;;4.10;;
66972;SDS011;53902;51.466;-2.586;2023-05-02T12:10:18;10.80;;;4.87;;
66972;SDS011;53902;51.466;-2.586;2023-05-02T12:12:43;5.73;;;5.13;;
66972;SDS011;53902;51.466;-2.586;2023-05-02T12:15:10;7.70;;;4.93;;
66972;SDS011;53902;51.466;-2.586;2023-05-02T12:17:36;6.10;;;4.55;;
66972;SDS011;53902;51.466;-2.586;2023-05-02T12:20:03;7.35;;;4.45;;
66972;SDS011;53902;51.466;-2.586;2023-05-02T12:22:29;7.22;;;4.53;;
66972;SDS011;53902;51.466;-2.586;2023-05-02T12:24:55;7.87;;;4.67;;
66972;SDS011;53902;51.466;-2.586;2023-05-02T12:27:20;7.27;;;4.37;;
66972;SDS011;53902;51.466;-2.586;2023-05-02T12:29:46;7.33;;;4.90;;
66972;SDS011;53902;51.466;-2.586;2023-05-02T12:32:13;7.60;;;4.70;;
66972;SDS011;53902;51.466;-2.586;2023-05-02T12:34:39;6.00;;;4.50;;
66972;SDS011;53902;51.466;-2.586;2023-05-02T12:37:05;6.28;;;4.20;;
66972;SDS011;53902;51.466;-2.586;2023-05-02T12:39:35;6.70;;;3.90;;
66972;SDS011;53902;51.466;-2.586;2023-05-02T12:42:11;6.30;;;3.97;;
66972;SDS011;53902;51.466;-2.586;2023-05-02T12:44:37;5.45;;;3.72;;
66972;SDS011;53902;51.466;-2.586;2023-05-02T12:47:04;6.72;;;4.20;;
66972;SDS011;53902;51.466;-2.586;2023-05-02T12:49:29;6.77;;;3.97;;
66972;SDS011;53902;51.466;-2.586;2023-05-02T12:51:55;5.97;;;3.80;;
66972;SDS011;53902;51.466;-2.586;2023-05-02T12:54:21;8.10;;;3.88;;
66972;SDS011;53902;51.466;-2.586;2023-05-02T12:56:46;4.83;;;3.70;;
66972;SDS011;53902;51.466;-2.586;2023-05-02T12:59:28;5.25;;;3.58;;
66972;SDS011;53902;51.466;-2.586;2023-05-02T13:01:55;7.07;;;4.13;;
66972;SDS011;53902;51.466;-2.586;2023-05-02T13:04:21;6.82;;;4.15;;
66972;SDS011;53902;51.466;-2.586;2023-05-02T13:06:57;6.65;;;4.25;;
66972;SDS011;53902;51.466;-2.586;2023-05-02T13:09:22;7.63;;;4.10;;
66972;SDS011;53902;51.466;-2.586;2023-05-02T13:11:47;7.50;;;3.90;;
66972;SDS011;53902;51.466;-2.586;2023-05-02T13:14:13;6.57;;;3.77;;
66972;SDS011;53902;51.466;-2.586;2023-05-02T13:16:38;5.57;;;3.70;;
66972;SDS011;53902;51.466;-2.586;2023-05-02T13:19:04;6.47;;;3.50;;
66972;SDS011;53902;51.466;-2.586;2023-05-02T13:21:29;8.93;;;3.60;;
66972;SDS011;53902;51.466;-2.586;2023-05-02T13:23:55;5.70;;;3.37;;
66972;SDS011;53902;51.466;-2.586;2023-05-02T13:26:22;6.18;;;3.25;;
66972;SDS011;53902;51.466;-2.586;2023-05-02T13:28:48;6.57;;;3.80;;
66972;SDS011;53902;51.466;-2.586;2023-05-02T13:31:13;6.30;;;3.73;;
66972;SDS011;53902;51.466;-2.586;2023-05-02T13:33:38;7.90;;;3.17;;
66972;SDS011;53902;51.466;-2.586;2023-05-02T13:36:04;6.80;;;3.37;;
66972;SDS011;53902;51.466;-2.586;2023-05-02T13:38:29;6.93;;;3.30;;
66972;SDS011;53902;51.466;-2.586;2023-05-02T13:40:55;5.27;;;3.77;;
66972;SDS011;53902;51.466;-2.586;2023-05-02T13:43:20;7.87;;;3.70;;
66972;SDS011;53902;51.466;-2.586;2023-05-02T13:45:46;3.77;;;3.20;;
66972;SDS011;53902;51.466;-2.586;2023-05-02T13:48:12;5.47;;;3.78;;
66972;SDS011;53902;51.466;-2.586;2023-05-02T13:50:39;5.45;;;3.80;;
66972;SDS011;53902;51.466;-2.586;2023-05-02T13:53:05;8.80;;;3.20;;
66972;SDS011;53902;51.466;-2.586;2023-05-02T13:55:30;6.73;;;3.83;;
66972;SDS011;53902;51.466;-2.586;2023-05-02T13:57:56;5.47;;;3.37;;
66972;SDS011;53902;51.466;-2.586;2023-05-02T14:00:21;5.30;;;3.17;;
66972;SDS011;53902;51.466;-2.586;2023-05-02T14:02:47;6.03;;;3.33;;
66972;SDS011;53902;51.466;-2.586;2023-05-02T14:05:12;9.20;;;4.10;;
66972;SDS011;53902;51.466;-2.586;2023-05-02T14:07:38;7.70;;;3.40;;
66972;SDS011;53902;51.466;-2.586;2023-05-02T14:10:07;6.18;;;3.17;;
66972;SDS011;53902;51.466;-2.586;2023-05-02T14:12:32;7.00;;;3.53;;
66972;SDS011;53902;51.466;-2.586;2023-05-02T14:14:58;9.90;;;4.10;;
66972;SDS011;53902;51.466;-2.586;2023-05-02T14:17:23;6.43;;;3.57;;
66972;SDS011;53902;51.466;-2.586;2023-05-02T14:19:49;6.60;;;3.57;;
66972;SDS011;53902;51.466;-2.586;2023-05-02T14:22:15;8.02;;;4.13;;
66972;SDS011;53902;51.466;-2.586;2023-05-02T14:24:41;6.97;;;3.43;;
66972;SDS011;53902;51.466;-2.586;2023-05-02T14:27:06;4.20;;;3.03;;
66972;SDS011;53902;51.466;-2.586;2023-05-02T14:29:37;4.30;;;3.20;;
66972;SDS011;53902;51.466;-2.586;2023-05-02T14:32:08;6.93;;;3.75;;
66972;SDS011;53902;51.466;-2.586;2023-05-02T14:34:33;7.47;;;3.90;;
66972;SDS011;53902;51.466;-2.586;2023-05-02T14:36:59;4.93;;;3.30;;
66972;SDS011;53902;51.466;-2.586;2023-05-02T14:39:24;3.83;;;3.07;;
66972;SDS011;53902;51.466;-2.586;2023-05-02T14:41:51;6.13;;;3.50;;
66972;SDS011;53902;51.466;-2.586;2023-05-02T14:44:17;9.77;;;3.53;;
66972;SDS011;53902;51.466;-2.586;2023-05-02T14:46:42;4.33;;;3.40;;
66972;SDS011;53902;51.466;-2.586;2023-05-02T14:49:08;8.20;;;4.77;;
66972;SDS011;53902;51.466;-2.586;2023-05-02T14:51:35;4.13;;;3.00;;
66972;SDS011;53902;51.466;-2.586;2023-05-02T14:54:02;6.43;;;2.92;;
66972;SDS011;53902;51.466;-2.586;2023-05-02T14:56:28;5.93;;;3.17;;
66972;SDS011;53902;51.466;-2.586;2023-05-02T14:58:54;4.63;;;2.80;;
66972;SDS011;53902;51.466;-2.586;2023-05-02T15:01:20;7.03;;;3.20;;
66972;SDS011;53902;51.466;-2.586;2023-05-02T15:03:47;5.15;;;3.35;;
66972;SDS011;53902;51.466;-2.586;2023-05-02T15:06:14;6.90;;;3.25;;
66972;SDS011;53902;51.466;-2.586;2023-05-02T15:08:40;6.60;;;4.30;;
66972;SDS011;53902;51.466;-2.586;2023-05-02T15:11:10;7.85;;;3.83;;
66972;SDS011;53902;51.466;-2.586;2023-05-02T15:13:36;5.35;;;3.80;;
66972;SDS011;53902;51.466;-2.586;2023-05-02T15:16:02;6.35;;;3.72;;
66972;SDS011;53902;51.466;-2.586;2023-05-02T15:20:54;6.30;;;3.30;;
66972;SDS011;53902;51.466;-2.586;2023-05-02T15:23:20;6.07;;;3.97;;
66972;SDS011;53902;51.466;-2.586;2023-05-02T15:25:46;7.68;;;3.88;;
66972;SDS011;53902;51.466;-2.586;2023-05-02T15:28:12;5.57;;;3.77;;